Richelieu, Canada
Current Conditions -  °F | °C
As of 9:00 PM on Saturday 22 Nov 2014 (Local Time) from CYND Reporting Station
Overcast Overcast  
Wind Chill: 30°   Ceiling: 1000
Heat Index: 36°   Visibility: 15mi
Dew Point: 34°   Wind: 7mph
Humidity: 93%   Direction: 240°WSW
Pressure: 29.89"   Gusts: NA
Location:  45.45°N, 75.25°W
Report Text: CYND 230200Z 24006KT 15SM OVC010 02/01 A2989 RMK SF8 LAST OBS/NEXT 231200 UTC SLP124
Loading
Personal Weather Stations






























Interactive Weather Map New forecast layout! Learn more

10-Day Weather Forecast

Advertisements
Track Severe Weather on mobile